Flight Track Log - Related Links

Times and Time Zones

All times are in EDT time to prevent confusion due to time zone crossing. See the N6345B flight status page for this flight to view local times or setup timezone preferences in your user account.

Time Position Orientation Groundspeed Altitude Reporting Facility
EDT Latitude Longitude Course Direction KTS MPH feet Rate Location/Type
Thu 12:14:41 PM 30.3422 -81.4819 108° East 83 96 1,800  Level Jacksonville Center
Thu 12:15:42 PM 30.3397 -81.4461 95° East 101 116 2,500 563 Climbing Jacksonville Center
Thu 12:16:49 PM 30.3186 -81.4222 136° Southeast 98 113 3,000 516 Climbing Jacksonville Center
Thu 12:17:50 PM 30.2994 -81.4033 140° Southeast 97 112 3,600 600 Climbing Jacksonville Center
Thu 12:18:39 PM 30.2767 -81.4036 181° South 100 115 4,100 600 Climbing Jacksonville Center
Thu 12:19:40 PM 30.2475 -81.4042 181° South 96 110 4,700 537 Climbing Jacksonville Center
Thu 12:20:42 PM 30.2203 -81.4044 181° South 100 115 5,200 533 Climbing Jacksonville Center
Thu 12:21:55 PM 30.1869 -81.4075 185° South 99 114 5,900 358 Climbing Jacksonville Center
Thu 12:22:56 PM 30.1578 -81.4081 181° South 107 123 6,000 55 Climbing Jacksonville Center
Thu 12:23:45 PM 30.1325 -81.4083 181° South 110 127 6,000  Level Jacksonville Center
Thu 12:24:46 PM 30.1014 -81.4064 177° South 109 125 6,000  Level Jacksonville Center
Thu 12:25:53 PM 30.0658 -81.4069 181° South 112 129 6,000  Level Jacksonville Center
Thu 12:26:55 PM 30.0344 -81.3956 163° South 117 135 6,000  Level Jacksonville Center
Thu 12:27:57 PM 30.0050 -81.3839 161° South 114 131 6,000  Level Jacksonville Center
Thu 12:28:58 PM 29.9756 -81.3725 161° South 118 136 6,000  Level Jacksonville Center
Thu 12:29:56 PM 29.9483 -81.3631 163° South 109 125 6,000  Level Jacksonville Center
Thu 12:30:21 PM 29.9378 -81.3561 150° Southeast 106 122 6,000  Level Jacksonville Center
Thu 12:31:21 PM 29.9106 -81.3469 164° South 100 115 6,000  Level Jacksonville Center
Thu 12:32:22 PM 29.8792 -81.3381 166° South 108 124 6,000  Level Jacksonville Center
Thu 12:33:23 PM 29.8519 -81.3239 156° South 107 123 6,000  Level Jacksonville Center
Thu 12:34:24 PM 29.8225 -81.3125 161° South 107 123 6,000  Level Jacksonville Center
Thu 12:35:25 PM 29.7931 -81.3033 165° South 109 125 6,000  Level Jacksonville Center
Thu 12:36:26 PM 29.7639 -81.2919 161° South 107 123 6,000 -49 Level Jacksonville Center
Thu 12:37:27 PM 29.7386 -81.2828 163° South 104 120 5,900 -295 Descending Jacksonville Center
Thu 12:38:28 PM 29.7092 -81.2736 165° South 103 119 5,400 -541 Descending Jacksonville Center
Thu 12:39:29 PM 29.6778 -81.2622 163° South 107 123 4,800 -590 Descending Jacksonville Center
Thu 12:40:30 PM 29.6486 -81.2556 169° South 108 124 4,200 -378 Descending Jacksonville Center
Thu 12:41:36 PM 29.6169 -81.2467 166° South 106 122 4,000 -94 Descending Jacksonville Center
Thu 12:42:37 PM 29.5878 -81.2375 165° South 108 124 4,000  Level Jacksonville Center
Thu 12:43:39 PM 29.5606 -81.2283 164° South 96 110 4,000 -195 Level Jacksonville Center
Thu 12:44:40 PM 29.5333 -81.2242 172° South 101 116 3,600 -344 Descending Jacksonville Center
Thu 12:45:41 PM 29.5042 -81.2247 181° South 106 122 3,300 -283 Descending Jacksonville Center
Thu 12:46:47 PM 29.4747 -81.2108 158° South 108 124 3,000 -378 Descending Jacksonville Center
Thu 12:47:48 PM 29.4658 -81.1822 110° East 106 122 2,500 -513 Descending Jacksonville Center
Thu 12:48:44 PM 29.4697 -81.1514 82° East 106 122 2,000 -244 Descending Jacksonville Center
Thu 12:49:51 PM 29.4733 -81.1178 83° East 105 121 2,000  Level Jacksonville Center
Thu 12:50:51 PM 29.4833 -81.0867 70° East 106 122 2,000  Level Jacksonville Center
Thu 12:51:52 PM 29.5025 -81.1031 323° Northwest 102 117 2,000  Level Jacksonville Center
Thu 12:52:53 PM 29.4986 -81.1364 262° West 99 114 2,000  Level Jacksonville Center
Thu 12:53:54 PM 29.4694 -81.1417 189° South 105 121 2,000  Level Jacksonville Center
Thu 12:54:49 PM 29.4425 -81.1422 181° South 103 119 2,000  Level Jacksonville Center
Thu 12:55:56 PM 29.4133 -81.1500 193° South 102 117 2,000  Level Jacksonville Center
Thu 12:56:57 PM 29.3906 -81.1622 205° Southwest 101 116 2,000  Level Jacksonville Center
Thu 12:57:45 PM 29.3717 -81.1506 152° Southeast 99 114 2,000  Level Jacksonville Center
Thu 12:58:52 PM 29.3400 -81.1369 159° South 99 114 2,000 -94 Level Jacksonville Center
Thu 12:59:53 PM 29.3147 -81.1231 154° Southeast 109 125 1,800 -207 Descending Jacksonville Center
Thu 01:00:48 PM 29.2894 -81.1092 154° Southeast 102 117 1,600 -103 Descending Jacksonville Center
Thu 01:01:49 PM 29.2664 -81.0978 157° South 86 99 1,600 -148 Level Jacksonville Center
Thu 01:02:50 PM 29.2433 -81.0864 157° South 94 108 1,300 -393 Descending Jacksonville Center
Thu 01:03:51 PM 29.2161 -81.0725 156° South 102 117 800 -246 Descending Jacksonville Center
Thu 01:04:52 PM 29.1931 -81.0706 176° South 89 102 800 -50 Level Jacksonville Center
Thu 01:05:52 PM 29.1789 -81.0969 238° Southwest 103 119 700 -100 Descending Jacksonville Center
Thu 01:07:00 PM 29.1798 -81.0620 161° South  Level Estimated
Thu 01:14:00 PM 29.1799 -81.0581 161° South  Level Estimated

Login

Don't have an account? Register now (free) for customized features, flight alerts, and more!